Time;durP1;ratioP1;P1;durP2;ratioP2;P2;SDS_P1;SDS_P2;PMS_P1;PMS_P2;Temp;Humidity;BMP_temperature;BMP_pressure;BME280_temperature;BME280_humidity;BME280_pressure;Samples;Min_cycle;Max_cycle;Signal;HPM_P1;HPM_P2
2021/08/26 04:02:17;;;;;;;6.97;3.20;;;12.20;96.30;;;;;;5076065;23;21037;-81
2021/08/26 04:04:43;;;;;;;7.83;3.57;;;12.10;96.30;;;;;;4945273;28;20415;-79
2021/08/26 04:07:08;;;;;;;5.77;2.77;;;12.00;96.30;;;;;;4938161;29;20175;-79
2021/08/26 04:09:34;;;;;;;4.77;2.23;;;12.00;96.30;;;;;;4934935;29;20267;-77
2021/08/26 04:11:59;;;;;;;8.60;2.87;;;12.00;96.30;;;;;;4935201;29;20222;-77
2021/08/26 04:14:25;;;;;;;5.60;2.43;;;12.00;96.30;;;;;;4935934;29;20238;-78
2021/08/26 04:16:50;;;;;;;3.93;2.50;;;12.00;96.30;;;;;;4937149;29;20654;-75
2021/08/26 04:19:16;;;;;;;4.00;2.97;;;11.90;96.30;;;;;;4937106;29;20186;-75
2021/08/26 04:21:41;;;;;;;6.40;2.77;;;11.90;96.30;;;;;;4935554;29;20351;-75
2021/08/26 04:24:07;;;;;;;2.67;1.83;;;11.90;96.30;;;;;;4939211;29;20678;-76
2021/08/26 04:26:32;;;;;;;1.80;1.30;;;11.80;96.30;;;;;;4949091;29;20198;-74
2021/08/26 04:28:58;;;;;;;1.30;1.20;;;11.70;96.30;;;;;;4953068;28;20186;-72
2021/08/26 04:31:23;;;;;;;1.60;1.37;;;11.60;96.30;;;;;;4952977;28;20307;-72
2021/08/26 04:33:49;;;;;;;3.53;1.07;;;11.50;96.30;;;;;;4955143;28;20694;-73
2021/08/26 04:36:14;;;;;;;5.17;1.73;;;11.50;96.30;;;;;;4954600;28;20171;-73
2021/08/26 04:38:40;;;;;;;2.00;1.40;;;11.50;96.30;;;;;;4954738;28;20175;-72
2021/08/26 04:41:07;;;;;;;1.37;1.20;;;11.60;96.30;;;;;;4954180;28;20250;-73
2021/08/26 04:43:32;;;;;;;2.53;1.57;;;11.50;96.30;;;;;;4955099;28;20175;-74
2021/08/26 04:45:58;;;;;;;1.60;1.27;;;11.50;96.30;;;;;;4955265;28;20425;-75
2021/08/26 04:48:23;;;;;;;2.60;1.50;;;11.50;96.30;;;;;;4954162;28;20182;-78
2021/08/26 04:50:48;;;;;;;3.50;1.97;;;11.50;96.30;;;;;;4954331;28;20210;-75
2021/08/26 04:53:14;;;;;;;3.57;1.80;;;11.50;96.30;;;;;;4955044;28;20199;-76
2021/08/26 04:55:40;;;;;;;4.23;1.80;;;11.40;96.30;;;;;;4953197;28;20213;-78
2021/08/26 04:58:05;;;;;;;7.30;2.30;;;11.50;96.30;;;;;;4951651;28;20178;-76
2021/08/26 05:00:31;;;;;;;5.13;1.93;;;11.60;96.30;;;;;;4955785;28;20243;-76
2021/08/26 05:02:56;;;;;;;2.97;1.87;;;11.60;96.30;;;;;;4954841;28;20159;-77
2021/08/26 05:05:22;;;;;;;5.20;1.80;;;11.60;96.30;;;;;;4940006;28;20190;-77
2021/08/26 05:07:47;;;;;;;2.00;1.27;;;11.70;96.30;;;;;;4934812;29;20652;-77
2021/08/26 05:10:13;;;;;;;6.13;2.03;;;11.70;96.30;;;;;;4934816;29;20183;-77
2021/08/26 05:12:38;;;;;;;4.70;2.30;;;11.80;96.30;;;;;;4933943;29;20315;-78
2021/08/26 05:15:05;;;;;;;7.10;2.43;;;11.90;96.30;;;;;;4936008;29;20567;-79
2021/08/26 05:17:30;;;;;;;4.40;2.20;;;11.90;96.30;;;;;;4936278;29;20184;-77
2021/08/26 05:19:56;;;;;;;4.10;2.13;;;11.90;96.30;;;;;;4937245;29;20579;-77
2021/08/26 05:22:22;;;;;;;5.37;2.20;;;11.90;96.30;;;;;;4934035;29;20188;-80
2021/08/26 05:24:50;;;;;;;4.53;2.53;;;11.80;96.30;;;;;;4933627;29;20155;-78
2021/08/26 05:27:16;;;;;;;7.20;2.43;;;11.80;96.30;;;;;;4935252;29;20411;-79
2021/08/26 05:29:42;;;;;;;4.63;2.10;;;11.80;96.30;;;;;;4935692;29;20432;-78
2021/08/26 05:32:07;;;;;;;5.53;2.17;;;11.70;96.30;;;;;;4935851;29;20191;-77
2021/08/26 05:34:33;;;;;;;8.83;2.27;;;11.60;96.30;;;;;;4934748;29;20458;-78
2021/08/26 05:36:58;;;;;;;6.17;2.53;;;11.60;96.30;;;;;;4935168;29;20183;-77
2021/08/26 05:39:24;;;;;;;3.57;2.17;;;11.60;96.30;;;;;;4936409;29;20259;-76
2021/08/26 05:41:49;;;;;;;8.70;2.47;;;11.60;96.30;;;;;;4934565;29;20199;-77
2021/08/26 05:44:16;;;;;;;5.53;2.10;;;11.60;96.30;;;;;;4935702;29;20183;-79
2021/08/26 05:46:43;;;;;;;7.33;3.20;;;11.50;96.30;;;;;;4935454;29;20188;-77
2021/08/26 05:49:08;;;;;;;6.60;3.00;;;11.60;96.30;;;;;;4934641;29;20427;-76
2021/08/26 05:51:34;;;;;;;7.07;2.60;;;11.60;96.30;;;;;;4933663;29;20563;-77
2021/08/26 05:53:59;;;;;;;10.60;3.13;;;11.60;96.30;;;;;;4935155;29;20207;-78
2021/08/26 05:56:26;;;;;;;5.43;2.67;;;11.60;96.30;;;;;;4935321;29;20175;-76
2021/08/26 05:58:52;;;;;;;5.87;2.80;;;11.60;96.30;;;;;;4935271;29;20167;-77
2021/08/26 06:01:18;;;;;;;13.13;3.70;;;11.60;96.30;;;;;;4933499;29;20501;-76
2021/08/26 06:03:43;;;;;;;5.87;3.90;;;11.60;96.30;;;;;;4933629;29;20202;-77
2021/08/26 06:06:08;;;;;;;10.63;3.63;;;11.70;96.30;;;;;;4934805;29;20179;-77
2021/08/26 06:08:34;;;;;;;7.53;3.87;;;11.70;96.30;;;;;;4933510;29;20190;-77
2021/08/26 06:10:59;;;;;;;4.60;3.77;;;11.70;96.30;;;;;;4937420;29;20561;-76
2021/08/26 06:13:25;;;;;;;12.20;4.13;;;11.80;96.30;;;;;;4955656;29;20195;-77
2021/08/26 06:15:51;;;;;;;14.13;4.40;;;11.90;96.30;;;;;;4957049;28;20234;-76
2021/08/26 06:18:17;;;;;;;4.97;4.00;;;11.90;96.30;;;;;;4956907;28;20167;-77
2021/08/26 06:20:43;;;;;;;6.10;4.27;;;11.90;96.30;;;;;;4955426;28;20199;-77
2021/08/26 06:23:09;;;;;;;9.27;4.70;;;11.90;96.30;;;;;;4954622;29;20561;-77
2021/08/26 06:25:34;;;;;;;5.63;4.43;;;11.90;96.30;;;;;;4957142;28;20505;-77
2021/08/26 06:28:00;;;;;;;6.03;4.20;;;11.80;96.30;;;;;;4957463;28;20544;-77
2021/08/26 06:30:26;;;;;;;6.33;4.40;;;11.80;96.30;;;;;;4956841;28;20636;-77
2021/08/26 06:32:52;;;;;;;5.47;4.23;;;11.80;96.30;;;;;;4956175;28;20203;-77
2021/08/26 06:35:18;;;;;;;8.77;4.60;;;11.70;96.30;;;;;;4955760;28;20473;-78
2021/08/26 06:37:43;;;;;;;7.70;3.73;;;11.70;96.30;;;;;;4952316;29;20930;-77
2021/08/26 06:40:09;;;;;;;6.00;3.90;;;11.70;96.30;;;;;;4957294;28;20547;-79
2021/08/26 06:42:35;;;;;;;7.13;4.07;;;11.70;96.30;;;;;;4956801;28;20545;-79
2021/08/26 06:45:00;;;;;;;11.27;4.67;;;11.70;96.30;;;;;;4956188;28;20422;-77
2021/08/26 06:47:26;;;;;;;11.00;5.47;;;11.80;96.30;;;;;;4951147;29;20650;-78
2021/08/26 06:49:51;;;;;;;14.00;4.93;;;11.80;96.30;;;;;;4957016;28;20197;-79
2021/08/26 06:52:17;;;;;;;6.83;4.63;;;11.80;96.30;;;;;;4954999;28;20230;-78
2021/08/26 06:54:42;;;;;;;9.47;5.67;;;11.70;96.30;;;;;;4939066;29;20200;-79
2021/08/26 06:57:08;;;;;;;10.87;5.37;;;11.80;96.30;;;;;;4936529;29;20171;-77
2021/08/26 06:59:33;;;;;;;11.83;5.27;;;11.80;96.30;;;;;;4936547;29;20171;-79
2021/08/26 07:01:59;;;;;;;10.83;5.73;;;11.90;96.30;;;;;;4949670;29;20293;-77
2021/08/26 07:04:24;;;;;;;9.33;5.83;;;11.80;96.30;;;;;;4957975;29;20194;-78
2021/08/26 07:06:54;;;;;;;5.80;4.70;;;11.90;96.30;;;;;;4958401;29;20330;-79
2021/08/26 07:09:20;;;;;;;10.20;5.33;;;11.80;96.30;;;;;;4954183;28;20269;-77
2021/08/26 07:11:46;;;;;;;10.27;5.37;;;12.00;96.30;;;;;;4956526;28;20969;-77
2021/08/26 07:14:11;;;;;;;21.03;6.50;;;12.00;96.30;;;;;;4957592;28;20462;-77
2021/08/26 07:16:37;;;;;;;10.90;6.53;;;12.00;96.30;;;;;;4955566;28;20254;-78
2021/08/26 07:19:02;;;;;;;10.40;5.23;;;12.10;96.30;;;;;;4957392;28;20702;-79
2021/08/26 07:21:28;;;;;;;12.50;5.90;;;12.10;96.30;;;;;;4956002;28;20222;-77
2021/08/26 07:23:53;;;;;;;9.10;5.30;;;12.20;96.30;;;;;;4956212;28;20659;-79
2021/08/26 07:26:19;;;;;;;15.00;6.23;;;12.20;96.30;;;;;;4957490;28;20290;-79
2021/08/26 07:28:45;;;;;;;16.40;5.93;;;12.10;96.30;;;;;;4956846;28;20191;-79
2021/08/26 07:31:12;;;;;;;17.47;5.80;;;12.20;96.30;;;;;;4952842;28;20239;-78
2021/08/26 07:33:37;;;;;;;10.87;6.00;;;12.20;96.30;;;;;;4937266;29;20459;-78
2021/08/26 07:36:04;;;;;;;7.23;4.40;;;12.20;96.30;;;;;;4936045;29;20507;-78
2021/08/26 07:38:30;;;;;;;13.03;5.90;;;12.20;96.30;;;;;;4937043;29;20198;-78
2021/08/26 07:40:56;;;;;;;16.43;5.97;;;12.10;96.30;;;;;;4936832;29;20923;-82
2021/08/26 07:43:25;;;;;;;16.80;6.47;;;12.10;96.30;;;;;;4935525;29;20636;-78
2021/08/26 07:45:51;;;;;;;13.50;5.67;;;12.20;96.30;;;;;;4935732;29;20807;-78
2021/08/26 07:48:17;;;;;;;14.83;6.20;;;12.40;96.30;;;;;;4935327;29;20992;-78
2021/08/26 07:50:43;;;;;;;8.93;6.47;;;12.50;96.30;;;;;;4939627;29;20502;-78
2021/08/26 07:53:09;;;;;;;11.53;6.60;;;12.90;96.30;;;;;;4953649;29;20430;-78
2021/08/26 07:55:34;;;;;;;18.00;6.87;;;13.50;96.30;;;;;;4953833;29;20190;-78
2021/08/26 07:58:00;;;;;;;10.60;6.07;;;13.70;96.30;;;;;;4955551;28;20179;-79
2021/08/26 08:00:25;;;;;;;13.23;5.40;;;13.70;96.30;;;;;;4955388;28;20175;-78
2021/08/26 08:02:51;;;;;;;11.30;5.50;;;13.70;96.30;;;;;;4954964;28;20632;-78
2021/08/26 08:05:16;;;;;;;10.37;6.13;;;13.40;96.30;;;;;;4955111;28;20183;-78
2021/08/26 08:07:44;;;;;;;12.10;5.60;;;13.30;96.30;;;;;;4955556;28;20182;-80
2021/08/26 08:10:11;;;;;;;8.33;5.00;;;13.10;96.30;;;;;;4955906;28;20229;-76
2021/08/26 08:12:36;;;;;;;14.40;6.30;;;12.90;96.30;;;;;;4934958;29;20431;-76
2021/08/26 08:15:02;;;;;;;11.37;6.10;;;12.70;96.30;;;;;;4937189;29;20459;-74
2021/08/26 08:17:27;;;;;;;11.40;5.60;;;12.60;96.30;;;;;;4937179;29;20187;-72
2021/08/26 08:19:53;;;;;;;8.57;5.10;;;12.50;96.30;;;;;;4950228;29;20914;-73
2021/08/26 08:22:18;;;;;;;7.30;5.00;;;12.30;96.30;;;;;;4953970;28;20206;-74
2021/08/26 08:24:44;;;;;;;8.57;6.53;;;12.10;96.30;;;;;;4955746;28;20269;-73
2021/08/26 08:27:09;;;;;;;12.00;6.20;;;12.10;96.30;;;;;;4940290;28;20199;-75
2021/08/26 08:29:35;;;;;;;13.10;7.53;;;12.10;96.30;;;;;;4937992;29;20187;-76
2021/08/26 08:32:00;;;;;;;10.30;7.17;;;12.30;96.30;;;;;;4935146;29;20206;-75
2021/08/26 08:34:26;;;;;;;10.83;7.00;;;12.40;96.30;;;;;;4936619;29;20191;-76
2021/08/26 08:36:51;;;;;;;14.00;7.90;;;12.50;96.30;;;;;;4950777;29;20191;-76
2021/08/26 08:39:17;;;;;;;11.33;6.97;;;12.40;96.30;;;;;;4956408;29;20175;-78
2021/08/26 08:41:45;;;;;;;13.40;7.90;;;12.40;96.30;;;;;;4955588;29;20209;-77
2021/08/26 08:44:10;;;;;;;11.73;7.53;;;12.60;96.30;;;;;;4957344;28;20226;-77
2021/08/26 08:46:36;;;;;;;15.13;7.80;;;12.80;96.30;;;;;;4942612;28;20428;-77
2021/08/26 08:49:03;;;;;;;10.90;7.50;;;12.80;96.30;;;;;;4942782;29;20277;-79
2021/08/26 08:51:30;;;;;;;10.90;6.37;;;13.00;96.30;;;;;;4949266;28;20199;-78
2021/08/26 08:53:56;;;;;;;11.43;6.70;;;13.10;96.30;;;;;;4954198;29;20486;-79
2021/08/26 08:56:26;;;;;;;10.03;6.73;;;13.10;96.30;;;;;;4955958;28;20421;-77
2021/08/26 08:58:54;;;;;;;17.77;7.47;;;13.00;96.30;;;;;;4955532;28;20151;-77
2021/08/26 09:01:20;;;;;;;11.73;7.17;;;13.10;96.30;;;;;;4954713;28;20505;-79
2021/08/26 09:03:45;;;;;;;11.53;6.17;;;13.30;96.30;;;;;;4938836;28;21042;-78
2021/08/26 09:06:11;;;;;;;11.00;6.03;;;13.30;96.30;;;;;;4935567;29;20238;-78
2021/08/26 09:08:36;;;;;;;13.30;5.63;;;13.30;96.30;;;;;;4935481;29;20222;-77
2021/08/26 09:11:14;;;;;;;8.47;5.50;;;13.30;96.30;;;;;;4948843;29;20571;-77
2021/08/26 09:13:42;;;;;;;12.80;5.77;;;13.20;96.30;;;;;;4952769;28;20198;-78
2021/08/26 09:16:07;;;;;;;12.00;5.50;;;13.40;96.30;;;;;;4950207;28;20419;-77
2021/08/26 09:18:34;;;;;;;8.43;5.10;;;13.60;96.30;;;;;;4951684;28;20420;-77
2021/08/26 09:21:00;;;;;;;12.87;4.97;;;13.70;96.30;;;;;;4949509;29;20438;-77
2021/08/26 09:23:35;;;;;;;14.37;4.67;;;13.70;96.30;;;;;;4946870;29;20437;-78
2021/08/26 09:26:20;;;;;;;11.90;5.80;;;13.70;96.30;;;;;;4948483;28;20430;-77
2021/08/26 09:28:47;;;;;;;12.30;5.13;;;13.90;96.30;;;;;;4939794;29;20776;-79
2021/08/26 09:31:20;;;;;;;12.43;5.43;;;14.20;96.30;;;;;;4939894;28;20459;-77
2021/08/26 09:34:16;;;;;;;9.43;4.57;;;14.20;96.30;;;;;;4943635;29;20454;-77
2021/08/26 09:36:48;;;;;;;11.07;4.77;;;14.20;96.30;;;;;;4942714;29;20521;-77
2021/08/26 09:39:15;;;;;;;10.80;4.90;;;14.80;96.30;;;;;;4946373;28;20431;-78
2021/08/26 09:42:04;;;;;;;10.17;4.80;;;15.00;96.30;;;;;;4946806;28;20435;-77
2021/08/26 09:44:32;;;;;;;8.27;4.67;;;14.90;96.30;;;;;;4955051;28;20759;-78
2021/08/26 09:47:03;;;;;;;13.93;4.63;;;15.10;96.30;;;;;;4950378;29;20426;-76
2021/08/26 09:49:34;;;;;;;12.17;5.50;;;15.40;96.30;;;;;;4955376;29;20433;-77
2021/08/26 09:52:09;;;;;;;7.37;4.63;;;15.80;96.30;;;;;;4955583;28;20483;-77
2021/08/26 09:54:40;;;;;;;10.90;5.77;;;17.10;96.30;;;;;;4957385;28;20500;-77
2021/08/26 09:57:23;;;;;;;8.50;4.00;;;18.30;96.30;;;;;;4948972;28;20431;-77
2021/08/26 09:59:57;;;;;;;10.40;4.07;;;18.10;96.30;;;;;;4956815;28;20425;-77
2021/08/26 10:02:25;;;;;;;9.87;4.17;;;17.80;96.30;;;;;;4951464;28;20574;-78
2021/08/26 10:04:52;;;;;;;9.20;4.47;;;17.30;96.30;;;;;;4942800;29;20438;-77
2021/08/26 10:07:18;;;;;;;12.33;3.90;;;17.10;96.30;;;;;;4948760;28;20446;-77
2021/08/26 10:09:45;;;;;;;12.33;5.53;;;16.80;96.30;;;;;;4953172;29;20972;-77
2021/08/26 10:12:13;;;;;;;12.70;4.40;;;16.70;96.30;;;;;;4955082;29;20446;-78
2021/08/26 10:14:52;;;;;;;7.17;3.90;;;16.40;96.30;;;;;;4948214;29;20486;-79
2021/08/26 10:17:18;;;;;;;13.87;4.70;;;16.20;96.30;;;;;;4950174;28;20438;-78
2021/08/26 10:19:45;;;;;;;10.27;4.20;;;15.80;96.30;;;;;;4955049;28;20418;-78
2021/08/26 10:22:11;;;;;;;8.47;4.27;;;15.40;96.30;;;;;;4950071;29;20462;-77
2021/08/26 10:24:37;;;;;;;7.77;3.50;;;16.30;96.30;;;;;;4942511;28;20799;-77
2021/08/26 10:27:15;;;;;;;7.63;3.30;;;16.40;96.30;;;;;;4949710;29;20923;-78
2021/08/26 10:29:47;;;;;;;9.33;3.90;;;16.80;96.30;;;;;;4954118;29;20187;-77
2021/08/26 10:32:23;;;;;;;4.97;2.70;;;17.20;96.30;;;;;;4952410;28;20458;-77
2021/08/26 10:35:10;;;;;;;8.70;3.47;;;18.10;96.30;;;;;;4953118;29;20457;-79
2021/08/26 10:37:51;;;;;;;7.57;3.00;;;18.40;96.30;;;;;;4947907;29;20832;-80
2021/08/26 10:40:30;;;;;;;11.30;3.13;;;17.60;96.30;;;;;;4957298;28;20418;-81
2021/08/26 10:42:57;;;;;;;7.90;3.27;;;17.20;96.30;;;;;;4946141;28;20498;-78
2021/08/26 10:45:26;;;;;;;10.23;4.17;;;17.00;96.30;;;;;;4956981;29;20423;-79
2021/08/26 10:47:52;;;;;;;8.70;3.83;;;17.90;96.30;;;;;;4957968;28;20926;-80
2021/08/26 10:50:24;;;;;;;11.83;3.77;;;18.90;96.30;;;;;;4957315;28;20422;-80
2021/08/26 10:52:53;;;;;;;5.87;3.23;;;19.70;96.30;;;;;;4948607;28;20598;-79
2021/08/26 10:55:34;;;;;;;7.93;4.20;;;20.10;96.30;;;;;;4952921;28;20469;-82
2021/08/26 10:58:33;;;;;;;7.03;2.90;;;20.60;96.30;;;;;;4945323;29;20422;-82
2021/08/26 11:01:07;;;;;;;4.40;2.40;;;20.60;96.30;;;;;;4942636;29;20470;-82
2021/08/26 11:03:41;;;;;;;8.30;2.57;;;20.70;96.30;;;;;;4955573;28;20418;-82
2021/08/26 11:06:16;;;;;;;11.27;2.40;;;20.20;96.30;;;;;;4951367;28;20431;-82
2021/08/26 11:08:44;;;;;;;9.97;3.30;;;19.10;96.30;;;;;;4950369;29;20476;-82
2021/08/26 11:11:28;;;;;;;7.70;2.60;;;18.70;96.30;;;;;;4953776;28;20454;-79
2021/08/26 11:14:03;;;;;;;7.20;2.33;;;17.80;96.30;;;;;;4949284;29;20451;-79
2021/08/26 11:16:29;;;;;;;7.43;2.80;;;17.50;96.30;;;;;;4952764;28;20450;-79
2021/08/26 11:18:57;;;;;;;6.37;2.70;;;17.10;96.30;;;;;;4945704;29;20465;-80
2021/08/26 11:21:44;;;;;;;7.93;3.10;;;17.00;96.30;;;;;;4954298;28;20286;-78
2021/08/26 11:24:30;;;;;;;13.93;3.07;;;16.40;96.30;;;;;;4947259;28;20509;-73
2021/08/26 11:27:18;;;;;;;9.30;3.10;;;15.80;96.30;;;;;;4949277;29;20487;-73
2021/08/26 11:29:44;;;;;;;7.13;3.40;;;15.40;96.30;;;;;;4948624;29;20430;-77
2021/08/26 11:32:14;;;;;;;6.27;3.77;;;15.10;96.30;;;;;;4947821;28;20434;-79
2021/08/26 11:34:42;;;;;;;5.23;3.63;;;15.50;96.30;;;;;;4950105;29;20203;-78
2021/08/26 11:37:23;;;;;;;5.33;3.73;;;16.10;96.30;;;;;;4947931;29;20427;-78
2021/08/26 11:40:10;;;;;;;6.57;3.83;;;16.70;96.30;;;;;;4948991;29;20422;-81
2021/08/26 11:42:47;;;;;;;10.90;5.07;;;16.80;96.30;;;;;;4948142;29;20451;-80
2021/08/26 11:45:27;;;;;;;7.90;4.10;;;17.10;96.30;;;;;;4948727;29;20426;-81
2021/08/26 11:48:13;;;;;;;9.00;3.20;;;17.20;96.30;;;;;;4949282;28;20430;-80
2021/08/26 11:50:41;;;;;;;7.60;3.37;;;16.80;96.30;;;;;;4950595;29;20506;-81
2021/08/26 11:53:07;;;;;;;5.00;2.67;;;16.50;96.30;;;;;;4948648;29;20543;-80
2021/08/26 11:55:41;;;;;;;11.77;3.13;;;16.50;96.30;;;;;;4946119;28;20470;-81
2021/08/26 11:58:09;;;;;;;8.87;3.63;;;16.80;96.30;;;;;;4948854;29;20428;-79
2021/08/26 12:00:39;;;;;;;11.73;3.80;;;17.00;96.30;;;;;;4951388;29;20452;-79
2021/08/26 12:03:05;;;;;;;5.47;3.57;;;17.20;96.30;;;;;;4968158;28;20454;-79
2021/08/26 12:05:31;;;;;;;8.93;2.83;;;16.90;96.30;;;;;;4948975;28;20428;-79
2021/08/26 12:07:57;;;;;;;5.00;2.30;;;17.10;96.30;;;;;;4945082;28;20175;-79
2021/08/26 12:10:34;;;;;;;3.10;2.07;;;17.50;96.30;;;;;;4949205;28;20430;-78
2021/08/26 12:13:05;;;;;;;6.53;2.13;;;17.90;96.30;;;;;;4950283;29;20175;-78
2021/08/26 12:15:35;;;;;;;5.90;2.30;;;18.20;96.30;;;;;;4952912;28;20459;-79
2021/08/26 12:18:03;;;;;;;5.47;2.00;;;18.30;96.30;;;;;;4957510;28;20549;-79
2021/08/26 12:20:33;;;;;;;8.27;1.77;;;18.50;96.30;;;;;;4957537;28;20768;-79
2021/08/26 12:22:59;;;;;;;5.33;2.40;;;18.20;96.30;;;;;;4955819;29;20494;-78
2021/08/26 12:25:31;;;;;;;3.20;1.70;;;18.20;96.30;;;;;;4958672;28;20805;-79
2021/08/26 12:27:59;;;;;;;8.80;2.83;;;18.50;96.30;;;;;;4960224;28;20414;-79
2021/08/26 12:30:26;;;;;;;5.73;2.00;;;18.70;96.30;;;;;;4960968;29;20423;-79
2021/08/26 12:32:52;;;;;;;5.50;1.70;;;19.60;96.30;;;;;;4958973;28;20425;-79
2021/08/26 12:35:25;;;;;;;2.33;1.60;;;19.70;96.30;;;;;;4956732;28;20475;-79
2021/08/26 12:37:58;;;;;;;4.70;1.70;;;18.70;96.30;;;;;;4949455;29;20660;-80
2021/08/26 12:40:26;;;;;;;6.47;2.20;;;17.90;96.30;;;;;;4946102;29;20449;-80
2021/08/26 12:43:05;;;;;;;2.40;1.70;;;18.20;96.30;;;;;;4959455;28;20434;-80
2021/08/26 12:45:33;;;;;;;4.17;2.07;;;18.20;96.30;;;;;;4960328;29;20839;-82
2021/08/26 12:48:27;;;;;;;3.80;1.87;;;17.50;96.30;;;;;;4952676;28;20414;-79
2021/08/26 12:51:13;;;;;;;7.33;2.17;;;17.80;96.30;;;;;;4950650;29;20829;-77
2021/08/26 12:53:45;;;;;;;4.30;2.03;;;18.20;96.30;;;;;;4954646;28;20541;-77
2021/08/26 12:56:17;;;;;;;4.67;2.17;;;18.40;96.30;;;;;;4936098;28;20408;-77
2021/08/26 12:59:06;;;;;;;9.73;2.20;;;19.00;96.30;;;;;;4934241;29;20475;-76
2021/08/26 13:01:32;;;;;;;5.07;2.10;;;19.40;96.30;;;;;;4933419;29;20825;-77
2021/08/26 13:03:59;;;;;;;3.93;1.83;;;19.00;96.30;;;;;;4935239;29;20494;-76
2021/08/26 13:06:35;;;;;;;3.40;2.10;;;18.60;96.30;;;;;;4935254;29;20443;-77
2021/08/26 13:09:07;;;;;;;3.47;1.70;;;17.70;96.30;;;;;;4935220;29;20924;-77
2021/08/26 13:11:35;;;;;;;3.33;1.53;;;17.60;96.30;;;;;;4934853;29;20427;-78
2021/08/26 13:14:00;;;;;;;3.40;1.33;;;17.30;96.30;;;;;;4935140;29;20455;-78
2021/08/26 13:16:26;;;;;;;2.80;1.87;;;17.40;96.30;;;;;;4936341;29;20866;-76
2021/08/26 13:18:51;;;;;;;2.33;1.83;;;17.50;96.30;;;;;;4934919;29;20195;-76
2021/08/26 13:21:17;;;;;;;4.73;2.07;;;17.40;96.30;;;;;;4934601;29;20261;-77
2021/08/26 13:23:44;;;;;;;3.30;2.07;;;17.40;96.30;;;;;;4934839;29;20187;-76
2021/08/26 13:26:11;;;;;;;5.63;2.10;;;16.90;96.30;;;;;;4935002;29;20198;-77
2021/08/26 13:28:36;;;;;;;4.30;1.90;;;16.50;96.30;;;;;;4935010;29;20426;-76
2021/08/26 13:31:01;;;;;;;8.27;2.70;;;16.40;96.30;;;;;;4934882;29;20435;-78
2021/08/26 13:33:27;;;;;;;3.73;1.70;;;16.80;96.30;;;;;;4934980;29;20669;-77
2021/08/26 13:35:52;;;;;;;3.10;1.80;;;16.90;96.30;;;;;;4934941;29;20231;-76
2021/08/26 13:38:18;;;;;;;4.27;1.90;;;16.80;96.30;;;;;;4933667;29;20287;-76
2021/08/26 13:40:43;;;;;;;4.80;1.67;;;16.90;96.30;;;;;;4933641;29;20235;-77
2021/08/26 13:43:09;;;;;;;3.60;2.07;;;16.80;96.30;;;;;;4933245;29;20270;-76
2021/08/26 13:45:34;;;;;;;4.27;1.77;;;16.80;96.30;;;;;;4935016;29;20640;-76
2021/08/26 13:48:00;;;;;;;4.60;2.50;;;16.80;96.30;;;;;;4934910;29;20326;-76
2021/08/26 13:50:26;;;;;;;5.87;2.13;;;16.60;96.30;;;;;;4935173;29;20230;-79
2021/08/26 13:52:52;;;;;;;3.67;1.87;;;15.70;96.30;;;;;;4934336;29;20215;-77
2021/08/26 13:55:17;;;;;;;3.93;1.90;;;15.30;96.30;;;;;;4934772;29;20972;-76
2021/08/26 13:57:43;;;;;;;2.70;1.53;;;15.20;96.30;;;;;;4934753;29;20419;-76
2021/08/26 14:00:09;;;;;;;4.83;1.90;;;15.40;96.30;;;;;;4933369;29;20172;-76
2021/08/26 14:02:35;;;;;;;2.17;1.30;;;15.10;96.30;;;;;;4934294;29;20692;-77
2021/08/26 14:05:00;;;;;;;4.73;1.90;;;15.00;96.30;;;;;;4947568;29;20663;-77
2021/08/26 14:07:26;;;;;;;2.80;1.70;;;14.80;96.30;;;;;;4953334;29;20175;-76
2021/08/26 14:09:53;;;;;;;3.03;1.50;;;14.70;96.30;;;;;;4954920;28;20186;-77
2021/08/26 14:12:19;;;;;;;2.70;1.30;;;14.50;96.30;;;;;;4952469;29;20230;-77
2021/08/26 14:14:45;;;;;;;1.73;1.20;;;14.30;96.30;;;;;;4955108;28;20446;-79
2021/08/26 14:17:10;;;;;;;2.47;1.60;;;14.10;96.30;;;;;;4958614;28;20207;-80
2021/08/26 14:19:36;;;;;;;3.40;1.37;;;14.10;96.30;;;;;;4948866;28;20176;-80
2021/08/26 14:22:01;;;;;;;1.83;1.20;;;14.00;96.30;;;;;;4938602;29;20195;-79
2021/08/26 14:24:27;;;;;;;3.40;1.57;;;14.10;96.30;;;;;;4938936;29;20175;-79
2021/08/26 14:26:52;;;;;;;1.60;1.10;;;14.10;96.30;;;;;;4952493;29;20718;-79
2021/08/26 14:29:18;;;;;;;3.20;1.50;;;14.10;96.30;;;;;;4948284;28;20200;-80
2021/08/26 14:31:43;;;;;;;3.20;1.17;;;14.00;96.30;;;;;;4947195;29;20286;-80
2021/08/26 14:34:09;;;;;;;3.93;1.37;;;13.90;96.30;;;;;;4955561;28;20203;-84
2021/08/26 14:36:34;;;;;;;3.83;1.60;;;13.60;96.30;;;;;;4954045;28;20186;-78
2021/08/26 14:39:00;;;;;;;3.10;1.70;;;13.20;96.30;;;;;;4952864;29;20190;-78
2021/08/26 14:41:25;;;;;;;2.70;0.90;;;12.80;96.30;;;;;;4955528;28;20226;-76
2021/08/26 14:43:51;;;;;;;1.50;0.90;;;12.40;96.30;;;;;;4956431;28;20251;-78
2021/08/26 14:46:16;;;;;;;2.60;0.90;;;12.20;96.30;;;;;;4951657;28;20183;-79
2021/08/26 14:48:42;;;;;;;2.07;0.90;;;12.20;96.30;;;;;;4959066;28;20182;-78
2021/08/26 14:51:07;;;;;;;2.17;0.87;;;12.20;96.30;;;;;;4958061;28;20293;-78
2021/08/26 14:53:33;;;;;;;6.00;0.90;;;12.10;96.30;;;;;;4955961;28;20754;-77
2021/08/26 14:55:58;;;;;;;1.77;0.80;;;12.10;96.30;;;;;;4956446;28;20640;-76
2021/08/26 14:58:24;;;;;;;4.80;0.73;;;12.00;96.30;;;;;;4955923;28;20234;-75
2021/08/26 15:00:49;;;;;;;5.63;0.90;;;12.00;96.30;;;;;;4955843;28;20265;-76
2021/08/26 15:03:15;;;;;;;2.80;0.80;;;11.90;96.30;;;;;;4955488;28;20175;-76
2021/08/26 15:05:40;;;;;;;1.40;0.80;;;11.90;96.30;;;;;;4957509;28;20652;-77
2021/08/26 15:08:06;;;;;;;1.10;0.70;;;11.90;96.30;;;;;;4956990;28;20275;-80
2021/08/26 15:10:31;;;;;;;4.23;0.87;;;11.90;96.30;;;;;;4952297;28;20206;-80
2021/08/26 15:12:57;;;;;;;2.13;1.30;;;11.90;96.30;;;;;;4939401;29;20707;-80
2021/08/26 15:15:22;;;;;;;3.20;1.03;;;12.00;96.30;;;;;;4958115;28;20282;-80
2021/08/26 15:17:50;;;;;;;3.23;1.10;;;11.90;96.30;;;;;;4955321;28;20210;-78
2021/08/26 15:20:16;;;;;;;3.20;1.20;;;11.80;96.30;;;;;;4955831;28;20226;-79
2021/08/26 15:22:43;;;;;;;1.20;0.90;;;11.70;96.30;;;;;;4948761;29;20410;-76
2021/08/26 15:25:09;;;;;;;3.20;1.10;;;11.70;96.30;;;;;;4948542;29;20613;-76
2021/08/26 15:27:35;;;;;;;2.77;1.10;;;11.60;96.30;;;;;;4951582;28;20419;-74
2021/08/26 15:30:05;;;;;;;1.57;1.00;;;11.40;96.30;;;;;;4951465;28;20202;-77
2021/08/26 15:32:32;;;;;;;2.17;1.00;;;11.40;96.30;;;;;;4946014;28;20215;-77
2021/08/26 15:34:58;;;;;;;2.30;1.20;;;11.30;96.30;;;;;;4945827;28;20454;-78
2021/08/26 15:37:24;;;;;;;5.13;1.20;;;11.30;96.30;;;;;;4946174;29;20421;-77
2021/08/26 15:39:50;;;;;;;1.77;0.90;;;11.30;96.30;;;;;;4944361;28;20779;-77
2021/08/26 15:42:17;;;;;;;2.63;1.10;;;11.20;96.30;;;;;;4944368;29;20446;-77
2021/08/26 15:44:42;;;;;;;2.20;1.10;;;11.20;96.30;;;;;;4947389;29;20596;-78
2021/08/26 15:47:08;;;;;;;1.90;0.90;;;11.10;96.30;;;;;;4946396;29;20420;-79
2021/08/26 15:49:38;;;;;;;2.20;0.80;;;11.10;96.30;;;;;;4947733;28;20187;-82
2021/08/26 15:52:13;;;;;;;1.43;0.70;;;11.00;96.30;;;;;;4951587;28;20210;-81
2021/08/26 15:54:55;;;;;;;8.33;1.00;;;11.00;96.30;;;;;;4950755;29;20511;-81
2021/08/26 15:57:38;;;;;;;1.30;0.70;;;10.90;96.30;;;;;;4944102;29;20424;-80
2021/08/26 16:00:17;;;;;;;2.07;0.90;;;10.90;96.30;;;;;;4942856;29;20438;-79
2021/08/26 16:02:44;;;;;;;2.30;0.83;;;10.80;96.30;;;;;;4947519;29;20433;-81
2021/08/26 16:05:10;;;;;;;1.47;0.80;;;10.90;96.30;;;;;;4950024;29;20509;-82
2021/08/26 16:07:35;;;;;;;2.53;1.13;;;11.00;96.30;;;;;;4945733;29;20422;-81
2021/08/26 16:10:02;;;;;;;1.90;1.00;;;11.10;96.30;;;;;;4950522;29;21026;-81
2021/08/26 16:12:27;;;;;;;1.93;1.10;;;11.20;96.30;;;;;;4944379;29;20203;-82
2021/08/26 16:14:53;;;;;;;2.77;0.97;;;11.20;96.30;;;;;;4942536;29;20803;-81
2021/08/26 16:17:18;;;;;;;2.53;1.10;;;11.10;96.30;;;;;;4945811;29;20183;-83
2021/08/26 16:19:44;;;;;;;4.17;1.37;;;11.00;96.30;;;;;;4947071;28;20218;-82
2021/08/26 16:22:09;;;;;;;1.77;1.10;;;10.90;96.30;;;;;;4954466;29;20199;-81
2021/08/26 16:24:35;;;;;;;8.63;2.30;;;10.90;96.30;;;;;;4944432;28;20184;-80
2021/08/26 16:27:01;;;;;;;1.77;1.50;;;10.90;96.30;;;;;;4936284;29;20207;-80
2021/08/26 16:29:27;;;;;;;2.50;2.20;;;10.90;96.30;;;;;;4939208;29;20423;-80
2021/08/26 16:31:55;;;;;;;2.27;1.53;;;10.90;96.30;;;;;;4939600;29;20241;-80
2021/08/26 16:34:21;;;;;;;2.23;1.30;;;10.90;96.30;;;;;;4947053;29;20217;-80
2021/08/26 16:36:46;;;;;;;2.27;1.30;;;10.90;96.30;;;;;;4950421;28;20426;-80
2021/08/26 16:39:12;;;;;;;1.93;1.77;;;10.90;96.30;;;;;;4960416;28;20186;-80
2021/08/26 16:41:39;;;;;;;4.43;1.37;;;10.80;96.30;;;;;;4954988;29;20203;-80
2021/08/26 16:44:06;;;;;;;3.00;1.40;;;10.80;96.30;;;;;;4955091;28;20211;-80
2021/08/26 16:46:32;;;;;;;2.87;1.30;;;10.70;96.30;;;;;;4954033;28;20504;-79
2021/08/26 16:48:57;;;;;;;2.67;1.67;;;10.60;96.30;;;;;;4935675;29;20487;-78